Time;durP1;ratioP1;P1;durP2;ratioP2;P2;SDS_P1;SDS_P2;PMS_P1;PMS_P2;Temp;Humidity;BMP_temperature;BMP_pressure;BME280_temperature;BME280_humidity;BME280_pressure;Samples;Min_cycle;Max_cycle;Signal;HPM_P1;HPM_P2
2022/07/17 00:00:36;;;;;;;;;;;15.90;76.70;;;;;;5134403;27;19907;-57
2022/07/17 00:03:01;;;;;;;;;;;15.90;76.80;;;;;;5134517;27;19918;-55
2022/07/17 00:05:27;;;;;;;;;;;15.90;76.90;;;;;;5134244;27;20354;-53
2022/07/17 00:07:52;;;;;;;;;;;16.00;77.00;;;;;;5115977;27;19943;-51
2022/07/17 00:10:18;;;;;;;;;;;16.00;76.90;;;;;;5134336;27;19950;-55
2022/07/17 00:12:43;;;;;;;;;;;16.00;77.10;;;;;;5134694;27;19912;-54
2022/07/17 00:15:09;;;;;;;;;;;16.00;77.10;;;;;;5134941;27;19911;-51
2022/07/17 00:17:34;;;;;;;;;;;16.00;77.20;;;;;;5124352;27;19912;-54
2022/07/17 00:20:00;;;;;;;;;;;16.00;77.10;;;;;;5114617;28;19965;-55
2022/07/17 00:22:27;;;;;;;;;;;15.90;77.50;;;;;;5114127;28;19924;-55
2022/07/17 00:24:53;;;;;;;;;;;15.80;78.20;;;;;;5114234;28;20014;-50
2022/07/17 00:27:18;;;;;;;;;;;15.80;77.70;;;;;;5114304;28;20008;-59
2022/07/17 00:29:44;;;;;;;;;;;15.70;78.10;;;;;;5114551;28;19907;-53
2022/07/17 00:32:09;;;;;;;;;;;15.60;78.60;;;;;;5114001;28;19908;-54
2022/07/17 00:34:35;;;;;;;;;;;15.60;78.70;;;;;;5114176;28;20019;-53
2022/07/17 00:37:00;;;;;;;;;;;15.40;79.30;;;;;;5113300;28;19916;-51
2022/07/17 00:39:26;;;;;;;;;;;15.30;79.60;;;;;;5113290;28;20285;-56
2022/07/17 00:41:51;;;;;;;;;;;15.30;79.50;;;;;;5112949;28;19912;-53
2022/07/17 00:44:17;;;;;;;;;;;15.40;79.80;;;;;;5126086;27;19956;-50
2022/07/17 00:46:42;;;;;;;;;;;15.50;79.50;;;;;;5134336;27;19911;-53
2022/07/17 00:49:08;;;;;;;;;;;15.70;79.40;;;;;;5133764;27;20382;-51
2022/07/17 00:51:34;;;;;;;;;;;15.80;79.20;;;;;;5133655;27;20280;-52
2022/07/17 00:54:00;;;;;;;;;;;15.90;78.80;;;;;;5132912;27;19915;-53
2022/07/17 00:56:26;;;;;;;;;;;15.90;78.80;;;;;;5133008;27;19915;-53
2022/07/17 00:58:52;;;;;;;;;;;16.00;78.40;;;;;;5132829;27;19960;-54
2022/07/17 01:01:17;;;;;;;;;;;16.00;78.00;;;;;;5133430;27;20006;-50
2022/07/17 01:03:43;;;;;;;;;;;16.00;78.40;;;;;;5133065;27;19915;-54
2022/07/17 01:06:09;;;;;;;;;;;15.90;78.70;;;;;;5133466;27;19907;-52
2022/07/17 01:08:35;;;;;;;;;;;15.90;78.30;;;;;;5132958;27;20064;-53
2022/07/17 01:11:02;;;;;;;;;;;15.80;78.40;;;;;;5132945;27;19907;-55
2022/07/17 01:13:27;;;;;;;;;;;15.70;78.40;;;;;;5132794;27;19908;-51
2022/07/17 01:15:53;;;;;;;;;;;15.70;78.50;;;;;;5133249;27;19979;-50
2022/07/17 01:18:19;;;;;;;;;;;15.70;78.60;;;;;;5116630;28;19911;-53
2022/07/17 01:20:46;;;;;;;;;;;15.70;78.60;;;;;;5112688;28;19911;-55
2022/07/17 01:23:11;;;;;;;;;;;15.60;79.10;;;;;;5112157;28;20022;-53
2022/07/17 01:25:37;;;;;;;;;;;15.50;79.50;;;;;;5113228;28;19959;-55
2022/07/17 01:28:04;;;;;;;;;;;15.50;79.80;;;;;;5112576;28;19982;-54
2022/07/17 01:30:30;;;;;;;;;;;15.50;79.70;;;;;;5112991;28;19907;-55
2022/07/17 01:32:55;;;;;;;;;;;15.60;79.70;;;;;;5113271;28;20294;-52
2022/07/17 01:35:21;;;;;;;;;;;15.60;79.60;;;;;;5095339;28;19963;-54
2022/07/17 01:37:47;;;;;;;;;;;15.50;79.70;;;;;;5112711;28;20338;-52
2022/07/17 01:40:13;;;;;;;;;;;15.50;79.90;;;;;;5112562;28;19908;-55
2022/07/17 01:42:39;;;;;;;;;;;15.40;80.00;;;;;;5112666;28;19912;-55
2022/07/17 01:45:05;;;;;;;;;;;15.40;80.20;;;;;;5133163;28;19916;-54
2022/07/17 01:47:31;;;;;;;;;;;15.40;79.80;;;;;;5133956;28;19947;-54
2022/07/17 01:49:57;;;;;;;;;;;15.50;80.30;;;;;;5133779;27;20389;-54
2022/07/17 01:52:23;;;;;;;;;;;15.50;80.10;;;;;;5133767;28;19951;-54
2022/07/17 01:54:50;;;;;;;;;;;15.60;80.40;;;;;;5133359;28;19914;-54
2022/07/17 01:57:15;;;;;;;;;;;15.60;80.30;;;;;;5114828;28;19998;-53
2022/07/17 01:59:41;;;;;;;;;;;15.70;80.20;;;;;;5114474;28;19962;-51
2022/07/17 02:02:07;;;;;;;;;;;15.70;80.40;;;;;;5132949;28;19907;-52
2022/07/17 02:04:36;;;;;;;;;;;15.70;81.80;;;;;;5133143;27;19919;-54
2022/07/17 02:07:02;;;;;;;;;;;15.60;81.60;;;;;;5137767;27;19908;-54
2022/07/17 02:09:28;;;;;;;;;;;15.60;81.90;;;;;;5136664;27;19934;-53
2022/07/17 02:11:53;;;;;;;;;;;15.60;81.20;;;;;;5137238;27;19916;-52
2022/07/17 02:14:19;;;;;;;;;;;15.50;81.80;;;;;;5137288;27;19934;-52
2022/07/17 02:16:45;;;;;;;;;;;15.50;82.50;;;;;;5133670;27;20034;-49
2022/07/17 02:19:11;;;;;;;;;;;15.50;83.10;;;;;;5115979;28;19927;-53
2022/07/17 02:21:36;;;;;;;;;;;15.50;83.50;;;;;;5116285;28;20355;-52
2022/07/17 02:24:02;;;;;;;;;;;15.50;83.60;;;;;;5115453;28;19920;-51
2022/07/17 02:26:28;;;;;;;;;;;15.40;83.60;;;;;;5116625;28;20260;-55
2022/07/17 02:28:54;;;;;;;;;;;15.40;83.50;;;;;;5116401;28;19965;-56
2022/07/17 02:31:19;;;;;;;;;;;15.30;83.60;;;;;;5115771;28;19919;-54
2022/07/17 02:33:45;;;;;;;;;;;15.30;83.60;;;;;;5116510;28;19912;-52
2022/07/17 02:36:10;;;;;;;;;;;15.40;83.50;;;;;;5116717;28;19998;-52
2022/07/17 02:38:36;;;;;;;;;;;15.40;83.50;;;;;;5116500;28;19947;-55
2022/07/17 02:41:01;;;;;;;;;;;15.40;83.70;;;;;;5116064;28;20396;-56
2022/07/17 02:43:27;;;;;;;;;;;15.50;84.00;;;;;;5121950;27;20378;-49
2022/07/17 02:45:53;;;;;;;;;;;15.50;84.30;;;;;;5136166;27;20242;-54
2022/07/17 02:48:18;;;;;;;;;;;15.50;84.70;;;;;;5136379;27;20013;-55
2022/07/17 02:50:44;;;;;;;;;;;15.50;85.40;;;;;;5137198;27;19911;-51
2022/07/17 02:53:09;;;;;;;;;;;15.40;85.80;;;;;;5137412;27;19912;-52
2022/07/17 02:55:35;;;;;;;;;;;15.40;86.40;;;;;;5137085;27;19922;-52
2022/07/17 02:58:00;;;;;;;;;;;15.30;86.10;;;;;;5136221;27;19912;-52
2022/07/17 03:00:29;;;;;;;;;;;15.20;87.10;;;;;;5118770;27;19907;-54
2022/07/17 03:02:57;;;;;;;;;;;14.90;88.50;;;;;;5135884;27;20397;-52
2022/07/17 03:05:22;;;;;;;;;;;14.70;88.80;;;;;;5136344;27;19947;-52
2022/07/17 03:07:48;;;;;;;;;;;14.50;89.50;;;;;;5136363;27;20362;-53
2022/07/17 03:10:14;;;;;;;;;;;14.40;90.00;;;;;;5137244;27;19907;-54
2022/07/17 03:12:40;;;;;;;;;;;14.40;89.80;;;;;;5118193;27;19907;-55
2022/07/17 03:15:07;;;;;;;;;;;14.40;89.90;;;;;;5135967;27;20122;-53
2022/07/17 03:17:32;;;;;;;;;;;14.40;89.50;;;;;;5125633;27;19915;-55
2022/07/17 03:19:58;;;;;;;;;;;14.40;89.80;;;;;;5135188;27;19911;-52
2022/07/17 03:22:23;;;;;;;;;;;14.30;89.80;;;;;;5136143;27;20022;-54
2022/07/17 03:24:49;;;;;;;;;;;13.80;89.60;;;;;;5137019;27;19954;-53
2022/07/17 03:27:14;;;;;;;;;;;13.80;89.10;;;;;;5136365;27;19915;-53
2022/07/17 03:29:40;;;;;;;;;;;13.80;89.00;;;;;;5136030;27;19907;-53
2022/07/17 03:32:06;;;;;;;;;;;13.90;88.60;;;;;;5135684;27;19946;-51
2022/07/17 03:34:31;;;;;;;;;;;13.80;89.50;;;;;;5135733;27;19907;-50
2022/07/17 03:36:57;;;;;;;;;;;14.00;90.20;;;;;;5135055;27;20407;-51
2022/07/17 03:39:22;;;;;;;;;;;14.10;88.70;;;;;;5135577;27;19912;-53
2022/07/17 03:41:48;;;;;;;;;;;14.30;88.30;;;;;;5135104;27;19918;-50
2022/07/17 03:44:13;;;;;;;;;;;14.40;87.80;;;;;;5122883;27;19920;-50
2022/07/17 03:46:39;;;;;;;;;;;14.40;87.80;;;;;;5115910;28;19908;-51
2022/07/17 03:49:05;;;;;;;;;;;14.30;88.20;;;;;;5115183;28;19956;-51
2022/07/17 03:51:30;;;;;;;;;;;14.40;88.50;;;;;;5114427;28;19912;-54
2022/07/17 03:53:56;;;;;;;;;;;14.50;88.60;;;;;;5113927;28;19927;-51
2022/07/17 03:56:21;;;;;;;;;;;14.60;89.00;;;;;;5113789;28;19943;-53
2022/07/17 03:58:47;;;;;;;;;;;14.70;89.40;;;;;;5114213;28;19951;-55
2022/07/17 04:01:12;;;;;;;;;;;14.70;89.80;;;;;;5114443;28;19912;-53
2022/07/17 04:03:38;;;;;;;;;;;14.60;88.40;;;;;;5114152;28;19922;-54
2022/07/17 04:06:03;;;;;;;;;;;14.70;89.10;;;;;;5114120;28;20015;-54
2022/07/17 04:08:30;;;;;;;;;;;14.70;89.60;;;;;;5113921;28;20386;-53
2022/07/17 04:10:55;;;;;;;;;;;14.80;89.30;;;;;;5115524;28;19960;-54
2022/07/17 04:13:21;;;;;;;;;;;14.80;89.10;;;;;;5114879;28;19994;-54
2022/07/17 04:15:49;;;;;;;;;;;14.60;89.40;;;;;;5116131;28;20392;-51
2022/07/17 04:18:15;;;;;;;;;;;14.50;89.40;;;;;;5115257;28;19961;-53
2022/07/17 04:20:41;;;;;;;;;;;14.50;89.70;;;;;;5115001;28;19942;-52
2022/07/17 04:23:07;;;;;;;;;;;14.50;90.30;;;;;;5114723;28;19915;-54
2022/07/17 04:25:32;;;;;;;;;;;14.60;90.20;;;;;;5114708;28;19953;-54
2022/07/17 04:27:58;;;;;;;;;;;14.70;90.10;;;;;;5115195;28;20002;-56
2022/07/17 04:30:23;;;;;;;;;;;14.80;89.90;;;;;;5114824;28;20006;-58
2022/07/17 04:32:49;;;;;;;;;;;14.90;89.80;;;;;;5114365;28;20431;-53
2022/07/17 04:35:14;;;;;;;;;;;15.00;88.90;;;;;;5115361;28;19915;-52
2022/07/17 04:37:40;;;;;;;;;;;15.10;89.00;;;;;;5114169;28;19912;-51
2022/07/17 04:40:06;;;;;;;;;;;15.10;87.80;;;;;;5114205;28;19919;-53
2022/07/17 04:42:31;;;;;;;;;;;15.00;88.40;;;;;;5115378;28;19977;-51
2022/07/17 04:44:57;;;;;;;;;;;15.00;88.70;;;;;;5133170;27;19907;-52
2022/07/17 04:47:22;;;;;;;;;;;15.00;88.50;;;;;;5134311;27;19915;-54
2022/07/17 04:49:48;;;;;;;;;;;15.00;88.30;;;;;;5134456;27;20359;-52
2022/07/17 04:52:13;;;;;;;;;;;14.90;88.10;;;;;;5134328;27;19923;-53
2022/07/17 04:54:39;;;;;;;;;;;14.90;87.90;;;;;;5116030;27;20362;-53
2022/07/17 04:57:05;;;;;;;;;;;15.00;88.20;;;;;;5134036;27;19915;-56
2022/07/17 04:59:30;;;;;;;;;;;15.00;88.00;;;;;;5134337;27;19912;-57
2022/07/17 05:01:56;;;;;;;;;;;15.00;88.00;;;;;;5115615;27;20539;-50
2022/07/17 05:04:21;;;;;;;;;;;15.10;87.80;;;;;;5133643;27;19912;-54
2022/07/17 05:06:47;;;;;;;;;;;14.90;88.00;;;;;;5134723;27;20374;-55
2022/07/17 05:09:12;;;;;;;;;;;14.90;88.50;;;;;;5117043;27;19912;-55
2022/07/17 05:11:38;;;;;;;;;;;14.90;88.80;;;;;;5134835;27;19912;-55
2022/07/17 05:14:03;;;;;;;;;;;15.10;88.20;;;;;;5135316;27;20308;-53
2022/07/17 05:16:29;;;;;;;;;;;15.20;88.10;;;;;;5135036;27;19915;-57
2022/07/17 05:18:54;;;;;;;;;;;15.20;88.30;;;;;;5125043;27;19912;-54
2022/07/17 05:21:20;;;;;;;;;;;15.30;88.30;;;;;;5134726;27;20326;-55
2022/07/17 05:23:45;;;;;;;;;;;15.30;87.30;;;;;;5134063;27;20398;-56
2022/07/17 05:26:11;;;;;;;;;;;15.40;87.40;;;;;;5133179;27;20361;-55
2022/07/17 05:28:37;;;;;;;;;;;15.40;86.50;;;;;;5115079;27;19911;-55
2022/07/17 05:31:02;;;;;;;;;;;15.60;86.80;;;;;;5134739;28;20252;-51
2022/07/17 05:33:28;;;;;;;;;;;15.60;85.80;;;;;;5099400;28;19937;-54
2022/07/17 05:35:53;;;;;;;;;;;15.50;86.00;;;;;;5135327;28;19908;-53
2022/07/17 05:38:19;;;;;;;;;;;15.60;85.80;;;;;;5134710;27;20311;-54
2022/07/17 05:40:44;;;;;;;;;;;15.70;85.80;;;;;;5120112;27;19919;-54
2022/07/17 05:43:10;;;;;;;;;;;15.80;85.50;;;;;;5117196;28;19923;-54
2022/07/17 05:45:35;;;;;;;;;;;15.80;85.60;;;;;;5117883;28;19908;-50
2022/07/17 05:48:01;;;;;;;;;;;15.90;85.30;;;;;;5117887;28;19908;-53
2022/07/17 05:50:27;;;;;;;;;;;15.90;84.90;;;;;;5118213;28;19907;-53
2022/07/17 05:52:52;;;;;;;;;;;16.00;85.60;;;;;;5117281;28;19912;-52
2022/07/17 05:55:18;;;;;;;;;;;16.00;85.10;;;;;;5117926;28;19912;-56
2022/07/17 05:57:43;;;;;;;;;;;16.10;85.30;;;;;;5116367;28;19934;-53
2022/07/17 06:00:09;;;;;;;;;;;16.20;85.10;;;;;;5117372;28;20279;-55
2022/07/17 06:02:35;;;;;;;;;;;16.20;85.30;;;;;;5117055;28;19955;-53
2022/07/17 06:05:01;;;;;;;;;;;16.20;85.90;;;;;;5117104;28;19947;-53
2022/07/17 06:07:26;;;;;;;;;;;16.20;86.10;;;;;;5099766;28;19947;-53
2022/07/17 06:09:52;;;;;;;;;;;16.30;85.50;;;;;;5117514;28;19908;-53
2022/07/17 06:12:17;;;;;;;;;;;16.30;86.20;;;;;;5116694;28;19936;-53
2022/07/17 06:14:43;;;;;;;;;;;16.30;86.40;;;;;;5117549;28;19918;-54
2022/07/17 06:17:08;;;;;;;;;;;16.30;86.20;;;;;;5117416;28;19919;-54
2022/07/17 06:19:34;;;;;;;;;;;16.30;86.90;;;;;;5116780;28;19916;-52
2022/07/17 06:21:59;;;;;;;;;;;16.30;86.90;;;;;;5116759;28;20006;-56
2022/07/17 06:24:25;;;;;;;;;;;16.30;87.40;;;;;;5097945;28;19975;-53
2022/07/17 06:26:51;;;;;;;;;;;16.30;88.10;;;;;;5116290;28;20010;-51
2022/07/17 06:29:17;;;;;;;;;;;16.40;87.60;;;;;;5116426;28;20567;-53
2022/07/17 06:31:42;;;;;;;;;;;16.50;87.20;;;;;;5116090;28;19966;-54
2022/07/17 06:34:08;;;;;;;;;;;16.60;87.00;;;;;;5115534;28;20347;-55
2022/07/17 06:36:33;;;;;;;;;;;16.60;86.90;;;;;;5116650;28;20002;-54
2022/07/17 06:38:59;;;;;;;;;;;16.70;86.50;;;;;;5116092;28;20302;-51
2022/07/17 06:41:24;;;;;;;;;;;16.80;86.80;;;;;;5116469;28;19919;-55
2022/07/17 06:43:50;;;;;;;;;;;16.70;86.50;;;;;;5124422;27;20359;-55
2022/07/17 06:46:15;;;;;;;;;;;16.70;85.70;;;;;;5136716;27;19915;-53
2022/07/17 06:48:41;;;;;;;;;;;16.90;85.70;;;;;;5136388;27;19918;-55
2022/07/17 06:51:06;;;;;;;;;;;16.90;86.00;;;;;;5136399;27;19943;-53
2022/07/17 06:53:32;;;;;;;;;;;16.80;85.20;;;;;;5136012;27;19907;-56
2022/07/17 06:55:57;;;;;;;;;;;16.80;85.40;;;;;;5136312;27;19911;-54
2022/07/17 06:58:23;;;;;;;;;;;16.70;85.90;;;;;;5136346;27;19998;-55
2022/07/17 07:00:48;;;;;;;;;;;17.00;85.40;;;;;;5117916;27;19907;-52
2022/07/17 07:03:14;;;;;;;;;;;17.00;84.80;;;;;;5117321;27;20290;-56
2022/07/17 07:05:40;;;;;;;;;;;17.20;84.30;;;;;;5136389;27;20297;-53
2022/07/17 07:08:05;;;;;;;;;;;17.30;84.30;;;;;;5118050;27;19911;-51
2022/07/17 07:10:31;;;;;;;;;;;17.30;84.60;;;;;;5136217;27;19953;-52
2022/07/17 07:12:56;;;;;;;;;;;17.50;83.30;;;;;;5136484;27;19994;-53
2022/07/17 07:15:23;;;;;;;;;;;17.60;83.60;;;;;;5117200;27;19908;-50
2022/07/17 07:17:48;;;;;;;;;;;17.40;83.00;;;;;;5123166;27;20157;-52
2022/07/17 07:20:14;;;;;;;;;;;17.50;82.90;;;;;;5117056;28;19912;-54
2022/07/17 07:22:40;;;;;;;;;;;17.50;82.30;;;;;;5115548;28;19922;-54
2022/07/17 07:25:05;;;;;;;;;;;17.60;82.40;;;;;;5115334;28;19915;-52
2022/07/17 07:27:31;;;;;;;;;;;17.60;82.50;;;;;;5115905;28;19912;-55
2022/07/17 07:29:57;;;;;;;;;;;17.40;83.00;;;;;;5114954;28;19912;-52
2022/07/17 07:32:22;;;;;;;;;;;17.50;82.90;;;;;;5114964;28;19912;-54
2022/07/17 07:34:48;;;;;;;;;;;17.60;82.30;;;;;;5096631;28;19919;-55
2022/07/17 07:37:13;;;;;;;;;;;17.70;82.30;;;;;;5115094;28;19926;-55
2022/07/17 07:39:39;;;;;;;;;;;17.90;81.80;;;;;;5114382;28;19912;-56
2022/07/17 07:42:05;;;;;;;;;;;18.00;81.20;;;;;;5115352;28;19912;-55
2022/07/17 07:44:30;;;;;;;;;;;18.10;80.80;;;;;;5129325;27;20283;-52
2022/07/17 07:46:56;;;;;;;;;;;18.10;81.10;;;;;;5135350;27;19912;-53
2022/07/17 07:49:22;;;;;;;;;;;18.10;81.00;;;;;;5135234;27;19960;-55
2022/07/17 07:51:47;;;;;;;;;;;18.10;81.50;;;;;;5135302;27;19915;-52
2022/07/17 07:54:13;;;;;;;;;;;18.00;82.10;;;;;;5116584;27;19923;-57
2022/07/17 07:56:38;;;;;;;;;;;18.00;81.50;;;;;;5135412;27;20455;-54
2022/07/17 07:59:04;;;;;;;;;;;18.00;81.40;;;;;;5116868;27;20014;-55
2022/07/17 08:01:30;;;;;;;;;;;18.10;80.90;;;;;;5134361;27;19907;-54
2022/07/17 08:03:55;;;;;;;;;;;18.20;80.40;;;;;;5133447;27;20107;-56
2022/07/17 08:06:21;;;;;;;;;;;18.20;80.40;;;;;;5138287;27;19912;-51
2022/07/17 08:08:46;;;;;;;;;;;18.40;79.50;;;;;;5137794;27;20384;-53
2022/07/17 08:11:12;;;;;;;;;;;18.20;79.90;;;;;;5138619;27;19926;-53
2022/07/17 08:13:38;;;;;;;;;;;18.00;80.60;;;;;;5116740;27;19907;-55
2022/07/17 08:16:03;;;;;;;;;;;18.30;80.20;;;;;;5134879;27;19911;-55
2022/07/17 08:18:29;;;;;;;;;;;18.30;79.50;;;;;;5116343;27;20287;-51
2022/07/17 08:20:54;;;;;;;;;;;18.40;79.60;;;;;;5113908;28;20290;-54
2022/07/17 08:23:20;;;;;;;;;;;18.50;78.90;;;;;;5114643;28;19916;-53
2022/07/17 08:25:47;;;;;;;;;;;18.40;78.80;;;;;;5114031;28;19912;-55
2022/07/17 08:28:13;;;;;;;;;;;18.20;79.10;;;;;;5114545;28;19912;-54
2022/07/17 08:30:38;;;;;;;;;;;18.40;79.10;;;;;;5113877;28;20432;-54
2022/07/17 08:33:05;;;;;;;;;;;18.50;78.90;;;;;;5095540;28;19907;-51
2022/07/17 08:35:31;;;;;;;;;;;18.50;79.10;;;;;;5113848;28;20381;-50
2022/07/17 08:37:58;;;;;;;;;;;18.70;78.00;;;;;;5113801;28;19965;-53
2022/07/17 08:40:25;;;;;;;;;;;18.90;76.30;;;;;;5113837;28;19912;-57
2022/07/17 08:42:51;;;;;;;;;;;18.80;76.50;;;;;;5114068;27;19934;-56
2022/07/17 08:45:17;;;;;;;;;;;18.90;76.50;;;;;;5134297;27;19999;-54
2022/07/17 08:47:43;;;;;;;;;;;18.80;76.90;;;;;;5134949;27;19972;-53
2022/07/17 08:50:09;;;;;;;;;;;18.90;75.80;;;;;;5134818;27;19919;-52
2022/07/17 08:52:36;;;;;;;;;;;19.00;76.00;;;;;;5134898;27;19963;-51
2022/07/17 08:55:02;;;;;;;;;;;19.10;76.50;;;;;;5134622;27;20323;-52
2022/07/17 08:57:27;;;;;;;;;;;19.30;75.80;;;;;;5134969;27;20012;-54
2022/07/17 08:59:53;;;;;;;;;;;19.10;76.30;;;;;;5115807;27;20601;-54
2022/07/17 09:02:18;;;;;;;;;;;19.30;76.00;;;;;;5134397;27;20382;-56
2022/07/17 09:04:52;;;;;;;;;;;19.10;76.10;;;;;;5116278;27;20282;-54
2022/07/17 09:07:17;;;;;;;;;;;19.30;75.80;;;;;;5135462;27;19907;-56
2022/07/17 09:09:49;;;;;;;;;;;19.20;75.70;;;;;;5134905;27;19937;-53
2022/07/17 09:12:14;;;;;;;;;;;19.40;74.10;;;;;;5134618;27;19915;-54
2022/07/17 09:14:41;;;;;;;;;;;19.60;73.40;;;;;;5133908;27;19907;-55
2022/07/17 09:17:10;;;;;;;;;;;19.30;73.90;;;;;;5127254;27;19919;-56
2022/07/17 09:19:37;;;;;;;;;;;19.40;74.20;;;;;;5112511;28;19911;-52
2022/07/17 09:22:23;;;;;;;;;;;19.30;73.80;;;;;;5114028;28;19965;-55
2022/07/17 09:24:49;;;;;;;;;;;19.20;73.70;;;;;;5113380;28;20326;-53
2022/07/17 09:27:23;;;;;;;;;;;19.60;73.10;;;;;;5113199;28;20504;-52
2022/07/17 09:29:52;;;;;;;;;;;20.10;72.50;;;;;;5114609;28;19908;-54
2022/07/17 09:32:21;;;;;;;;;;;20.30;71.60;;;;;;5113983;28;19958;-54
2022/07/17 09:34:47;;;;;;;;;;;20.40;71.10;;;;;;5096160;28;19916;-55
2022/07/17 09:37:13;;;;;;;;;;;20.20;69.90;;;;;;5113341;28;19908;-56
2022/07/17 09:39:39;;;;;;;;;;;20.20;70.30;;;;;;5113287;28;19912;-56
2022/07/17 09:42:05;;;;;;;;;;;20.40;70.20;;;;;;5113344;28;19937;-56
2022/07/17 09:44:31;;;;;;;;;;;20.40;70.60;;;;;;5109258;28;19911;-56
2022/07/17 09:46:56;;;;;;;;;;;20.60;70.40;;;;;;5133895;28;20006;-55
2022/07/17 09:49:26;;;;;;;;;;;20.70;69.90;;;;;;5133630;27;20060;-56
2022/07/17 09:51:52;;;;;;;;;;;21.00;69.30;;;;;;5133161;28;19912;-55
2022/07/17 09:54:20;;;;;;;;;;;21.10;68.70;;;;;;5133787;28;19955;-53
2022/07/17 09:56:47;;;;;;;;;;;21.00;68.40;;;;;;5133860;28;19915;-55
2022/07/17 09:59:13;;;;;;;;;;;21.10;68.50;;;;;;5133350;27;20259;-51
2022/07/17 10:01:39;;;;;;;;;;;21.30;67.90;;;;;;5133584;28;19914;-54
2022/07/17 10:04:04;;;;;;;;;;;21.40;67.90;;;;;;5132816;28;19923;-52
2022/07/17 10:06:30;;;;;;;;;;;21.40;68.10;;;;;;5133330;28;19912;-59
2022/07/17 10:08:56;;;;;;;;;;;21.50;68.40;;;;;;5115024;28;20378;-56
2022/07/17 10:11:23;;;;;;;;;;;21.30;68.30;;;;;;5134003;28;19907;-55
2022/07/17 10:13:50;;;;;;;;;;;21.30;67.70;;;;;;5133905;28;19964;-51
2022/07/17 10:16:23;;;;;;;;;;;21.20;68.00;;;;;;5133798;28;19907;-55
2022/07/17 10:18:52;;;;;;;;;;;21.00;68.30;;;;;;5111834;28;20283;-53
2022/07/17 10:21:18;;;;;;;;;;;20.90;68.30;;;;;;5113463;28;19912;-53
2022/07/17 10:23:48;;;;;;;;;;;20.90;68.60;;;;;;5112655;28;19920;-55
2022/07/17 10:26:14;;;;;;;;;;;21.20;68.60;;;;;;5113496;28;19912;-54
2022/07/17 10:28:44;;;;;;;;;;;21.40;69.00;;;;;;5116627;28;19915;-52
2022/07/17 10:31:09;;;;;;;;;;;21.50;68.00;;;;;;5116739;28;19934;-54
2022/07/17 10:33:36;;;;;;;;;;;21.60;67.40;;;;;;5116174;28;19919;-53
2022/07/17 10:36:02;;;;;;;;;;;21.70;67.20;;;;;;5115784;28;19908;-53
2022/07/17 10:38:27;;;;;;;;;;;21.90;66.60;;;;;;5115455;28;20432;-53
2022/07/17 10:41:03;;;;;;;;;;;22.20;66.30;;;;;;5116160;28;19915;-53
2022/07/17 10:43:41;;;;;;;;;;;21.90;67.10;;;;;;5121633;27;19978;-55
2022/07/17 10:46:07;;;;;;;;;;;22.00;66.90;;;;;;5136642;27;20286;-55
2022/07/17 10:48:33;;;;;;;;;;;22.20;66.30;;;;;;5118007;27;19918;-50
2022/07/17 10:50:58;;;;;;;;;;;22.30;64.80;;;;;;5136217;27;19923;-53
2022/07/17 10:53:35;;;;;;;;;;;22.10;64.70;;;;;;5136389;27;19911;-54
2022/07/17 10:56:04;;;;;;;;;;;21.80;65.70;;;;;;5118025;27;19958;-53
2022/07/17 10:58:32;;;;;;;;;;;22.10;65.90;;;;;;5136581;27;19911;-54
2022/07/17 11:01:03;;;;;;;;;;;21.90;66.10;;;;;;5136984;27;20028;-53
2022/07/17 11:03:29;;;;;;;;;;;22.00;66.30;;;;;;5136919;27;19986;-54
2022/07/17 11:05:55;;;;;;;;;;;22.00;65.40;;;;;;5135866;27;19907;-56
2022/07/17 11:08:20;;;;;;;;;;;21.70;65.50;;;;;;5136830;27;19934;-55
2022/07/17 11:10:46;;;;;;;;;;;21.80;65.70;;;;;;5136598;27;20251;-56
2022/07/17 11:13:15;;;;;;;;;;;22.00;65.00;;;;;;5136148;27;19907;-53
2022/07/17 11:15:42;;;;;;;;;;;22.00;65.10;;;;;;5137226;27;20006;-55
2022/07/17 11:18:12;;;;;;;;;;;22.30;65.10;;;;;;5123489;27;19938;-50
2022/07/17 11:20:51;;;;;;;;;;;22.50;65.70;;;;;;5120030;28;20048;-52
2022/07/17 11:23:17;;;;;;;;;;;22.80;64.60;;;;;;5118718;28;19959;-53
2022/07/17 11:26:03;;;;;;;;;;;23.00;63.20;;;;;;5115548;28;19919;-53
2022/07/17 11:28:28;;;;;;;;;;;23.00;63.40;;;;;;5115161;28;20220;-56
2022/07/17 11:30:54;;;;;;;;;;;23.10;63.40;;;;;;5115662;28;20009;-54
2022/07/17 11:33:19;;;;;;;;;;;23.10;62.40;;;;;;5097355;28;19907;-52
2022/07/17 11:35:48;;;;;;;;;;;22.90;62.00;;;;;;5115525;28;19920;-55
2022/07/17 11:38:13;;;;;;;;;;;22.70;62.30;;;;;;5114619;28;19915;-54
2022/07/17 11:40:48;;;;;;;;;;;22.60;62.30;;;;;;5114846;28;19911;-54
2022/07/17 11:43:14;;;;;;;;;;;22.90;61.80;;;;;;5118029;27;19911;-54
2022/07/17 11:45:39;;;;;;;;;;;22.80;62.50;;;;;;5135484;27;19915;-56
2022/07/17 11:48:05;;;;;;;;;;;22.50;62.30;;;;;;5135026;27;19922;-54
2022/07/17 11:50:31;;;;;;;;;;;22.40;62.50;;;;;;5135038;27;19907;-53
2022/07/17 11:53:00;;;;;;;;;;;22.60;61.60;;;;;;5135532;27;19911;-56
2022/07/17 11:55:34;;;;;;;;;;;22.80;61.50;;;;;;5135767;27;19918;-57
2022/07/17 11:58:00;;;;;;;;;;;22.70;61.50;;;;;;5134938;27;19912;-54
2022/07/17 12:00:25;;;;;;;;;;;22.80;61.60;;;;;;5135797;27;20033;-55
2022/07/17 12:03:02;;;;;;;;;;;22.70;62.00;;;;;;5135371;27;19934;-55
2022/07/17 12:05:28;;;;;;;;;;;22.70;61.90;;;;;;5135016;27;20358;-54
2022/07/17 12:07:54;;;;;;;;;;;22.90;62.10;;;;;;5134689;27;19937;-54
2022/07/17 12:10:22;;;;;;;;;;;22.90;62.60;;;;;;5134960;27;20260;-53
2022/07/17 12:12:56;;;;;;;;;;;23.10;62.30;;;;;;5116156;27;19918;-52
2022/07/17 12:15:22;;;;;;;;;;;23.20;62.30;;;;;;5134944;27;19926;-54
2022/07/17 12:17:48;;;;;;;;;;;23.20;62.10;;;;;;5122463;27;20356;-53
2022/07/17 12:20:14;;;;;;;;;;;23.00;62.40;;;;;;5114327;28;19908;-55
2022/07/17 12:22:46;;;;;;;;;;;23.00;62.30;;;;;;5114596;28;19911;-54
2022/07/17 12:25:30;;;;;;;;;;;22.90;62.30;;;;;;5095958;28;19918;-53
2022/07/17 12:27:55;;;;;;;;;;;23.10;62.50;;;;;;5113824;28;20378;-53
2022/07/17 12:30:21;;;;;;;;;;;23.40;62.10;;;;;;5114087;28;20006;-54
2022/07/17 12:32:47;;;;;;;;;;;23.50;61.80;;;;;;5114681;28;19908;-53
2022/07/17 12:35:14;;;;;;;;;;;23.80;60.00;;;;;;5114388;28;19912;-56
2022/07/17 12:37:39;;;;;;;;;;;23.90;59.60;;;;;;5114598;28;19994;-56
2022/07/17 12:40:05;;;;;;;;;;;23.60;59.20;;;;;;5114823;28;19955;-57
2022/07/17 12:42:31;;;;;;;;;;;23.70;59.50;;;;;;5115928;28;19915;-55
2022/07/17 12:44:56;;;;;;;;;;;24.00;60.00;;;;;;5132031;27;20103;-53
2022/07/17 12:47:22;;;;;;;;;;;23.80;59.60;;;;;;5133729;27;19911;-52
2022/07/17 12:49:48;;;;;;;;;;;23.80;60.30;;;;;;5133583;27;19958;-53
2022/07/17 12:52:13;;;;;;;;;;;24.00;60.40;;;;;;5134186;27;19962;-51
2022/07/17 12:54:39;;;;;;;;;;;24.10;59.80;;;;;;5115434;27;19907;-51
2022/07/17 12:57:05;;;;;;;;;;;24.20;60.00;;;;;;5115810;27;20293;-56
2022/07/17 12:59:30;;;;;;;;;;;24.40;59.70;;;;;;5133342;27;19921;-55
2022/07/17 13:01:56;;;;;;;;;;;24.60;59.10;;;;;;5134327;27;20044;-54
2022/07/17 13:04:21;;;;;;;;;;;24.80;59.00;;;;;;5133912;27;19937;-54
2022/07/17 13:06:47;;;;;;;;;;;24.90;57.90;;;;;;5133677;27;19908;-55
2022/07/17 13:09:13;;;;;;;;;;;24.80;58.30;;;;;;5135290;27;19933;-57
2022/07/17 13:11:42;;;;;;;;;;;24.90;58.20;;;;;;5134562;27;20173;-51
2022/07/17 13:14:11;;;;;;;;;;;24.90;56.30;;;;;;5133735;27;20374;-54
2022/07/17 13:16:37;;;;;;;;;;;25.00;56.00;;;;;;5132061;27;19911;-55
2022/07/17 13:19:03;;;;;;;;;;;25.30;55.50;;;;;;5113449;28;20315;-54
2022/07/17 13:21:28;;;;;;;;;;;25.50;54.80;;;;;;5112972;28;19920;-56
2022/07/17 13:23:54;;;;;;;;;;;25.20;54.50;;;;;;5113314;28;19931;-52
2022/07/17 13:26:19;;;;;;;;;;;25.40;54.00;;;;;;5112989;28;19990;-54
2022/07/17 13:28:45;;;;;;;;;;;25.40;53.30;;;;;;5113099;28;19912;-54
2022/07/17 13:31:11;;;;;;;;;;;25.00;53.90;;;;;;5113799;28;19920;-52
2022/07/17 13:33:37;;;;;;;;;;;24.90;53.00;;;;;;5113860;28;19933;-54
2022/07/17 13:36:03;;;;;;;;;;;24.70;53.40;;;;;;5113699;28;19912;-56
2022/07/17 13:38:28;;;;;;;;;;;24.80;53.80;;;;;;5113803;28;19912;-56
2022/07/17 13:40:54;;;;;;;;;;;24.80;53.30;;;;;;5113745;28;19919;-51
2022/07/17 13:43:19;;;;;;;;;;;24.90;53.10;;;;;;5118468;28;19970;-54
2022/07/17 13:45:45;;;;;;;;;;;25.30;52.60;;;;;;5133814;28;19912;-55
2022/07/17 13:48:10;;;;;;;;;;;25.40;52.10;;;;;;5133808;28;19919;-54
2022/07/17 13:50:36;;;;;;;;;;;25.40;51.40;;;;;;5133505;27;19922;-55
2022/07/17 13:53:01;;;;;;;;;;;25.40;52.20;;;;;;5134303;28;19914;-53
2022/07/17 13:55:27;;;;;;;;;;;25.70;52.00;;;;;;5133793;28;19912;-53
2022/07/17 13:57:52;;;;;;;;;;;26.00;51.70;;;;;;5133994;28;19914;-56
2022/07/17 14:00:18;;;;;;;;;;;26.30;51.90;;;;;;5135319;27;19912;-54
2022/07/17 14:02:44;;;;;;;;;;;26.50;51.50;;;;;;5137559;27;19916;-55
2022/07/17 14:05:10;;;;;;;;;;;26.50;51.10;;;;;;5137103;27;19907;-53
2022/07/17 14:07:35;;;;;;;;;;;26.80;52.10;;;;;;5137935;27;19916;-55
2022/07/17 14:10:01;;;;;;;;;;;26.90;50.50;;;;;;5137909;27;20312;-54